sensor_id;sensor_type;location;lat;lon;timestamp;pressure;altitude;pressure_sealevel;temperature;humidity
9774;BME280;4926;42.670;23.316;2022-11-25T00:01:08;94318.88;;;6.56;86.01
9774;BME280;4926;42.670;23.316;2022-11-25T00:03:36;94323.63;;;6.54;86.34
9774;BME280;4926;42.670;23.316;2022-11-25T00:06:14;94333.69;;;6.57;86.54
9774;BME280;4926;42.670;23.316;2022-11-25T00:08:42;94338.97;;;6.57;86.05
9774;BME280;4926;42.670;23.316;2022-11-25T00:11:10;94332.88;;;6.56;85.80
9774;BME280;4926;42.670;23.316;2022-11-25T00:13:38;94330.25;;;6.51;85.57
9774;BME280;4926;42.670;23.316;2022-11-25T00:16:07;94326.81;;;6.56;85.34
9774;BME280;4926;42.670;23.316;2022-11-25T00:18:34;94346.13;;;6.46;85.49
9774;BME280;4926;42.670;23.316;2022-11-25T00:21:05;94338.19;;;6.46;85.13
9774;BME280;4926;42.670;23.316;2022-11-25T00:23:32;94343.72;;;6.50;85.13
9774;BME280;4926;42.670;23.316;2022-11-25T00:26:05;94346.91;;;6.57;85.08
9774;BME280;4926;42.670;23.316;2022-11-25T00:28:37;94344.78;;;6.44;85.40
9774;BME280;4926;42.670;23.316;2022-11-25T00:31:08;94340.84;;;6.41;85.72
9774;BME280;4926;42.670;23.316;2022-11-25T00:33:35;94351.66;;;6.45;85.89
9774;BME280;4926;42.670;23.316;2022-11-25T00:36:03;94344.53;;;6.45;86.12
9774;BME280;4926;42.670;23.316;2022-11-25T00:38:30;94345.31;;;6.51;86.14
9774;BME280;4926;42.670;23.316;2022-11-25T00:40:57;94348.75;;;6.46;86.62
9774;BME280;4926;42.670;23.316;2022-11-25T00:43:37;94348.50;;;6.38;87.73
9774;BME280;4926;42.670;23.316;2022-11-25T00:46:22;94342.69;;;6.36;88.59
9774;BME280;4926;42.670;23.316;2022-11-25T00:48:51;94338.47;;;6.40;88.83
9774;BME280;4926;42.670;23.316;2022-11-25T00:51:18;94345.31;;;6.41;89.13
9774;BME280;4926;42.670;23.316;2022-11-25T00:53:45;94326.53;;;6.42;88.46
9774;BME280;4926;42.670;23.316;2022-11-25T00:56:16;94348.47;;;6.53;88.22
9774;BME280;4926;42.670;23.316;2022-11-25T00:58:44;94350.59;;;6.46;88.09
9774;BME280;4926;42.670;23.316;2022-11-25T01:01:11;94353.78;;;6.48;88.34
9774;BME280;4926;42.670;23.316;2022-11-25T01:03:39;94348.75;;;6.46;88.43
9774;BME280;4926;42.670;23.316;2022-11-25T01:06:10;94355.88;;;6.46;88.01
9774;BME280;4926;42.670;23.316;2022-11-25T01:08:37;94345.06;;;6.37;88.21
9774;BME280;4926;42.670;23.316;2022-11-25T01:11:06;94350.63;;;6.36;88.35
9774;BME280;4926;42.670;23.316;2022-11-25T01:13:34;94349.53;;;6.37;88.36
9774;BME280;4926;42.670;23.316;2022-11-25T01:16:00;94353.53;;;6.39;88.59
9774;BME280;4926;42.670;23.316;2022-11-25T01:18:28;94350.09;;;6.49;88.40
9774;BME280;4926;42.670;23.316;2022-11-25T01:21:05;94341.09;;;6.45;87.92
9774;BME280;4926;42.670;23.316;2022-11-25T01:23:32;94341.09;;;6.45;88.36
9774;BME280;4926;42.670;23.316;2022-11-25T01:26:01;94348.47;;;6.53;88.09
9774;BME280;4926;42.670;23.316;2022-11-25T01:28:31;94345.03;;;6.47;87.83
9774;BME280;4926;42.670;23.316;2022-11-25T01:31:00;94345.31;;;6.51;87.71
9774;BME280;4926;42.670;23.316;2022-11-25T01:33:30;94337.94;;;6.43;88.03
9774;BME280;4926;42.670;23.316;2022-11-25T01:36:00;94339.25;;;6.45;87.86
9774;BME280;4926;42.670;23.316;2022-11-25T01:38:31;94338.44;;;6.50;87.01
9774;BME280;4926;42.670;23.316;2022-11-25T01:41:02;94326.28;;;6.49;86.85
9774;BME280;4926;42.670;23.316;2022-11-25T01:43:32;94328.38;;;6.57;86.67
9774;BME280;4926;42.670;23.316;2022-11-25T01:46:06;94328.91;;;6.59;85.71
9774;BME280;4926;42.670;23.316;2022-11-25T01:48:38;94314.63;;;6.60;84.65
9774;BME280;4926;42.670;23.316;2022-11-25T01:51:17;94320.44;;;6.67;84.60
9774;BME280;4926;42.670;23.316;2022-11-25T01:53:49;94308.00;;;6.67;83.75
9774;BME280;4926;42.670;23.316;2022-11-25T01:56:17;94309.06;;;6.66;83.22
9774;BME280;4926;42.670;23.316;2022-11-25T01:58:45;94290.28;;;6.68;82.57
9774;BME280;4926;42.670;23.316;2022-11-25T02:01:13;94300.84;;;6.73;82.05
9774;BME280;4926;42.670;23.316;2022-11-25T02:03:45;94304.28;;;6.68;81.47
9774;BME280;4926;42.670;23.316;2022-11-25T02:06:17;94316.19;;;6.71;81.49
9774;BME280;4926;42.670;23.316;2022-11-25T02:08:50;94308.53;;;6.74;80.72
9774;BME280;4926;42.670;23.316;2022-11-25T02:11:18;94321.47;;;6.76;81.20
9774;BME280;4926;42.670;23.316;2022-11-25T02:13:48;94317.75;;;6.77;80.81
9774;BME280;4926;42.670;23.316;2022-11-25T02:16:15;94318.03;;;6.70;80.56
9774;BME280;4926;42.670;23.316;2022-11-25T02:18:42;94317.00;;;6.66;81.02
9774;BME280;4926;42.670;23.316;2022-11-25T02:21:09;94332.06;;;6.71;80.63
9774;BME280;4926;42.670;23.316;2022-11-25T02:23:39;94333.09;;;6.70;80.38
9774;BME280;4926;42.670;23.316;2022-11-25T02:26:12;94319.63;;;6.71;80.53
9774;BME280;4926;42.670;23.316;2022-11-25T02:28:39;94337.88;;;6.78;79.93
9774;BME280;4926;42.670;23.316;2022-11-25T02:31:07;94331.25;;;6.70;79.74
9774;BME280;4926;42.670;23.316;2022-11-25T02:33:35;94331.78;;;6.72;79.57
9774;BME280;4926;42.670;23.316;2022-11-25T02:36:04;94344.22;;;6.67;79.76
9774;BME280;4926;42.670;23.316;2022-11-25T02:38:35;94338.66;;;6.73;79.42
9774;BME280;4926;42.670;23.316;2022-11-25T02:41:06;94341.06;;;6.75;78.83
9774;BME280;4926;42.670;23.316;2022-11-25T02:43:37;94338.94;;;6.82;78.83
9774;BME280;4926;42.670;23.316;2022-11-25T02:46:06;94333.09;;;6.70;78.34
9774;BME280;4926;42.670;23.316;2022-11-25T02:48:36;94331.00;;;6.72;78.21
9774;BME280;4926;42.670;23.316;2022-11-25T02:51:05;94352.16;;;6.72;77.98
9774;BME280;4926;42.670;23.316;2022-11-25T02:53:35;94351.63;;;6.65;78.34
9774;BME280;4926;42.670;23.316;2022-11-25T02:56:02;94345.84;;;6.63;78.67
9774;BME280;4926;42.670;23.316;2022-11-25T02:58:29;94353.00;;;6.57;79.18
9774;BME280;4926;42.670;23.316;2022-11-25T03:00:57;94339.50;;;6.59;79.35
9774;BME280;4926;42.670;23.316;2022-11-25T03:03:27;94349.25;;;6.63;79.60
9774;BME280;4926;42.670;23.316;2022-11-25T03:05:54;94347.44;;;6.59;79.88
9774;BME280;4926;42.670;23.316;2022-11-25T03:08:23;94349.00;;;6.60;80.45
9774;BME280;4926;42.670;23.316;2022-11-25T03:10:53;94359.59;;;6.55;80.82
9774;BME280;4926;42.670;23.316;2022-11-25T03:13:20;94361.69;;;6.58;81.08
9774;BME280;4926;42.670;23.316;2022-11-25T03:15:49;94365.41;;;6.57;81.19
9774;BME280;4926;42.670;23.316;2022-11-25T03:18:23;94358.81;;;6.59;81.55
9774;BME280;4926;42.670;23.316;2022-11-25T03:20:51;94351.63;;;6.65;81.66
9774;BME280;4926;42.670;23.316;2022-11-25T03:23:18;94361.19;;;6.61;81.65
9774;BME280;4926;42.670;23.316;2022-11-25T03:25:44;94360.09;;;6.62;81.99
9774;BME280;4926;42.670;23.316;2022-11-25T03:28:11;94367.53;;;6.55;82.71
9774;BME280;4926;42.670;23.316;2022-11-25T03:30:39;94380.22;;;6.53;83.50
9774;BME280;4926;42.670;23.316;2022-11-25T03:33:06;94365.44;;;6.47;84.47
9774;BME280;4926;42.670;23.316;2022-11-25T03:35:36;94368.34;;;6.45;85.43
9774;BME280;4926;42.670;23.316;2022-11-25T03:38:03;94366.47;;;6.41;86.22
9774;BME280;4926;42.670;23.316;2022-11-25T03:40:33;94372.84;;;6.35;87.54
9774;BME280;4926;42.670;23.316;2022-11-25T03:43:02;94372.31;;;6.33;88.68
9774;BME280;4926;42.670;23.316;2022-11-25T03:45:29;94376.53;;;6.34;89.50
9774;BME280;4926;42.670;23.316;2022-11-25T03:47:56;94380.22;;;6.33;89.81
9774;BME280;4926;42.670;23.316;2022-11-25T03:50:24;94378.09;;;6.30;90.75
9774;BME280;4926;42.670;23.316;2022-11-25T03:52:53;94376.53;;;6.24;91.68
9774;BME280;4926;42.670;23.316;2022-11-25T03:55:19;94382.34;;;6.21;92.46
9774;BME280;4926;42.670;23.316;2022-11-25T03:57:46;94393.94;;;6.25;92.61
9774;BME280;4926;42.670;23.316;2022-11-25T04:00:13;94378.09;;;6.20;92.89
9774;BME280;4926;42.670;23.316;2022-11-25T04:02:40;94395.03;;;6.19;94.11
9774;BME280;4926;42.670;23.316;2022-11-25T04:05:07;94398.69;;;6.13;94.24
9774;BME280;4926;42.670;23.316;2022-11-25T04:07:35;94403.72;;;6.14;94.79
9774;BME280;4926;42.670;23.316;2022-11-25T04:10:05;94406.13;;;6.16;94.83
9774;BME280;4926;42.670;23.316;2022-11-25T04:12:31;94408.75;;;6.11;94.45
9774;BME280;4926;42.670;23.316;2022-11-25T04:15:18;94400.31;;;6.14;94.07
9774;BME280;4926;42.670;23.316;2022-11-25T04:17:45;94411.16;;;6.12;94.07
9774;BME280;4926;42.670;23.316;2022-11-25T04:20:12;94409.28;;;6.08;93.77
9774;BME280;4926;42.670;23.316;2022-11-25T04:22:40;94402.13;;;6.03;94.14
9774;BME280;4926;42.670;23.316;2022-11-25T04:25:09;94406.09;;;6.06;93.82
9774;BME280;4926;42.670;23.316;2022-11-25T04:27:35;94404.53;;;6.05;94.20
9774;BME280;4926;42.670;23.316;2022-11-25T04:30:03;94406.63;;;6.03;94.12
9774;BME280;4926;42.670;23.316;2022-11-25T04:32:29;94420.63;;;6.08;94.27
9774;BME280;4926;42.670;23.316;2022-11-25T04:34:56;94424.59;;;6.11;93.78
9774;BME280;4926;42.670;23.316;2022-11-25T04:37:26;94429.91;;;6.16;93.00
9774;BME280;4926;42.670;23.316;2022-11-25T04:39:52;94427.00;;;6.12;93.09
9774;BME280;4926;42.670;23.316;2022-11-25T04:42:20;94429.38;;;6.09;93.05
9774;BME280;4926;42.670;23.316;2022-11-25T04:45:09;94435.16;;;6.11;93.39
9774;BME280;4926;42.670;23.316;2022-11-25T04:47:38;94435.19;;;6.16;93.15
9774;BME280;4926;42.670;23.316;2022-11-25T04:50:13;94436.75;;;6.12;93.28
9774;BME280;4926;42.670;23.316;2022-11-25T04:52:40;94437.81;;;6.11;92.84
9774;BME280;4926;42.670;23.316;2022-11-25T04:55:12;94447.34;;;6.17;92.58
9774;BME280;4926;42.670;23.316;2022-11-25T04:57:40;94444.16;;;6.10;92.95
9774;BME280;4926;42.670;23.316;2022-11-25T05:00:08;94454.97;;;6.03;93.06
9774;BME280;4926;42.670;23.316;2022-11-25T05:02:34;94471.09;;;6.07;92.97
9774;BME280;4926;42.670;23.316;2022-11-25T05:05:01;94469.78;;;6.09;92.29
9774;BME280;4926;42.670;23.316;2022-11-25T05:07:30;94477.97;;;6.08;92.77
9774;BME280;4926;42.670;23.316;2022-11-25T05:10:00;94475.88;;;6.10;92.45
9774;BME280;4926;42.670;23.316;2022-11-25T05:12:28;94490.16;;;6.09;91.96
9774;BME280;4926;42.670;23.316;2022-11-25T05:14:56;94486.97;;;6.17;90.98
9774;BME280;4926;42.670;23.316;2022-11-25T05:17:24;94494.38;;;6.20;90.85
9774;BME280;4926;42.670;23.316;2022-11-25T05:19:55;94500.19;;;6.17;90.28
9774;BME280;4926;42.670;23.316;2022-11-25T05:22:26;94497.81;;;6.20;90.39
9774;BME280;4926;42.670;23.316;2022-11-25T05:24:54;94496.50;;;6.23;89.99
9774;BME280;4926;42.670;23.316;2022-11-25T05:27:21;94505.75;;;6.25;89.57
9774;BME280;4926;42.670;23.316;2022-11-25T05:29:48;94518.16;;;6.20;89.24
9774;BME280;4926;42.670;23.316;2022-11-25T05:32:17;94510.47;;;6.08;88.36
9774;BME280;4926;42.670;23.316;2022-11-25T05:34:44;94508.59;;;6.04;88.26
9774;BME280;4926;42.670;23.316;2022-11-25T05:37:13;94539.28;;;6.15;88.48
9774;BME280;4926;42.670;23.316;2022-11-25T05:39:41;94527.69;;;6.21;87.64
9774;BME280;4926;42.670;23.316;2022-11-25T05:42:08;94534.28;;;6.23;87.31
9774;BME280;4926;42.670;23.316;2022-11-25T05:44:34;94547.25;;;6.20;86.56
9774;BME280;4926;42.670;23.316;2022-11-25T05:47:01;94540.91;;;6.21;86.65
9774;BME280;4926;42.670;23.316;2022-11-25T05:49:32;94547.25;;;6.25;86.50
9774;BME280;4926;42.670;23.316;2022-11-25T05:52:01;94544.09;;;6.28;86.19
9774;BME280;4926;42.670;23.316;2022-11-25T05:54:28;94535.63;;;6.26;85.95
9774;BME280;4926;42.670;23.316;2022-11-25T05:56:55;94543.06;;;6.34;85.25
9774;BME280;4926;42.670;23.316;2022-11-25T05:59:23;94539.38;;;6.35;84.96
9774;BME280;4926;42.670;23.316;2022-11-25T06:01:51;94548.06;;;6.35;84.36
9774;BME280;4926;42.670;23.316;2022-11-25T06:04:18;94544.94;;;6.38;84.53
9774;BME280;4926;42.670;23.316;2022-11-25T06:06:49;94548.63;;;6.47;83.45
9774;BME280;4926;42.670;23.316;2022-11-25T06:09:16;94555.53;;;6.53;83.29
9774;BME280;4926;42.670;23.316;2022-11-25T06:11:43;94554.22;;;6.56;82.35
9774;BME280;4926;42.670;23.316;2022-11-25T06:14:11;94570.59;;;6.53;81.80
9774;BME280;4926;42.670;23.316;2022-11-25T06:16:40;94568.75;;;6.53;81.52
9774;BME280;4926;42.670;23.316;2022-11-25T06:19:06;94579.06;;;6.60;81.44
9774;BME280;4926;42.670;23.316;2022-11-25T06:21:33;94576.19;;;6.71;82.11
9774;BME280;4926;42.670;23.316;2022-11-25T06:24:01;94572.75;;;6.71;80.88
9774;BME280;4926;42.670;23.316;2022-11-25T06:26:28;94582.78;;;6.64;80.11
9774;BME280;4926;42.670;23.316;2022-11-25T06:28:55;94587.81;;;6.65;80.58
9774;BME280;4926;42.670;23.316;2022-11-25T06:31:24;94597.59;;;6.70;80.12
9774;BME280;4926;42.670;23.316;2022-11-25T06:33:54;94601.84;;;6.66;80.16
9774;BME280;4926;42.670;23.316;2022-11-25T06:36:21;94591.28;;;6.76;79.11
9774;BME280;4926;42.670;23.316;2022-11-25T06:38:52;94601.59;;;6.82;78.79
9774;BME280;4926;42.670;23.316;2022-11-25T06:41:21;94605.56;;;6.75;78.54
9774;BME280;4926;42.670;23.316;2022-11-25T06:43:48;94596.56;;;6.81;78.25
9774;BME280;4926;42.670;23.316;2022-11-25T06:46:25;94601.09;;;6.86;78.27
9774;BME280;4926;42.670;23.316;2022-11-25T06:48:52;94598.97;;;6.88;78.55
9774;BME280;4926;42.670;23.316;2022-11-25T06:51:19;94612.47;;;6.91;78.60
9774;BME280;4926;42.670;23.316;2022-11-25T06:53:46;94617.78;;;6.96;78.83
9774;BME280;4926;42.670;23.316;2022-11-25T06:56:14;94616.72;;;6.92;78.66
9774;BME280;4926;42.670;23.316;2022-11-25T06:58:43;94615.09;;;6.91;79.12
9774;BME280;4926;42.670;23.316;2022-11-25T07:01:17;94617.47;;;6.88;78.73
9774;BME280;4926;42.670;23.316;2022-11-25T07:03:45;94620.66;;;6.85;78.83
9774;BME280;4926;42.670;23.316;2022-11-25T07:06:15;94615.09;;;6.91;78.73
9774;BME280;4926;42.670;23.316;2022-11-25T07:08:42;94631.50;;;6.88;78.86
9774;BME280;4926;42.670;23.316;2022-11-25T07:11:12;94629.94;;;6.97;78.32
9774;BME280;4926;42.670;23.316;2022-11-25T07:13:43;94630.22;;;7.06;78.13
9774;BME280;4926;42.670;23.316;2022-11-25T07:16:12;94636.31;;;7.11;77.94
9774;BME280;4926;42.670;23.316;2022-11-25T07:18:40;94635.78;;;7.24;77.25
9774;BME280;4926;42.670;23.316;2022-11-25T07:21:11;94637.41;;;7.30;76.88
9774;BME280;4926;42.670;23.316;2022-11-25T07:23:38;94627.34;;;7.22;76.98
9774;BME280;4926;42.670;23.316;2022-11-25T07:26:07;94634.75;;;7.30;76.95
9774;BME280;4926;42.670;23.316;2022-11-25T07:28:35;94641.13;;;7.29;76.55
9774;BME280;4926;42.670;23.316;2022-11-25T07:31:09;94641.38;;;7.33;76.49
9774;BME280;4926;42.670;23.316;2022-11-25T07:33:35;94632.63;;;7.32;76.32
9774;BME280;4926;42.670;23.316;2022-11-25T07:36:03;94632.63;;;7.32;76.15
9774;BME280;4926;42.670;23.316;2022-11-25T07:38:31;94640.56;;;7.27;76.25
9774;BME280;4926;42.670;23.316;2022-11-25T07:41:04;94647.44;;;7.18;76.28
9774;BME280;4926;42.670;23.316;2022-11-25T07:43:31;94651.16;;;7.17;76.71
9774;BME280;4926;42.670;23.316;2022-11-25T07:46:11;94643.22;;;7.42;75.93
9774;BME280;4926;42.670;23.316;2022-11-25T07:48:42;94643.19;;;7.82;74.51
9774;BME280;4926;42.670;23.316;2022-11-25T07:51:13;94647.94;;;8.01;73.35
9774;BME280;4926;42.670;23.316;2022-11-25T07:53:40;94651.09;;;8.13;72.28
9774;BME280;4926;42.670;23.316;2022-11-25T07:56:07;94633.44;;;8.67;70.16
9774;BME280;4926;42.670;23.316;2022-11-25T07:58:34;94629.28;;;9.38;67.39
9774;BME280;4926;42.670;23.316;2022-11-25T08:01:01;94617.44;;;9.88;64.70
9774;BME280;4926;42.670;23.316;2022-11-25T08:03:32;94623.63;;;10.12;63.56
9774;BME280;4926;42.670;23.316;2022-11-25T08:06:00;94611.50;;;10.72;61.16
9774;BME280;4926;42.670;23.316;2022-11-25T08:08:26;94615.66;;;10.78;61.05
9774;BME280;4926;42.670;23.316;2022-11-25T08:10:56;94619.72;;;10.94;60.40
9774;BME280;4926;42.670;23.316;2022-11-25T08:13:23;94624.34;;;11.07;60.01
9774;BME280;4926;42.670;23.316;2022-11-25T08:15:50;94610.72;;;11.08;58.64
9774;BME280;4926;42.670;23.316;2022-11-25T08:18:17;94625.16;;;10.65;59.57
9774;BME280;4926;42.670;23.316;2022-11-25T08:20:45;94625.25;;;10.97;59.54
9774;BME280;4926;42.670;23.316;2022-11-25T08:23:14;94619.56;;;11.41;58.09
9774;BME280;4926;42.670;23.316;2022-11-25T08:25:41;94614.94;;;11.65;56.77
9774;BME280;4926;42.670;23.316;2022-11-25T08:28:11;94622.03;;;11.88;56.26
9774;BME280;4926;42.670;23.316;2022-11-25T08:30:39;94617.38;;;11.80;55.91
9774;BME280;4926;42.670;23.316;2022-11-25T08:33:06;94628.41;;;11.74;56.42
9774;BME280;4926;42.670;23.316;2022-11-25T08:35:35;94623.75;;;11.47;56.79
9774;BME280;4926;42.670;23.316;2022-11-25T08:38:04;94634.78;;;11.22;57.61
9774;BME280;4926;42.670;23.316;2022-11-25T08:40:31;94649.69;;;10.10;60.66
9774;BME280;4926;42.670;23.316;2022-11-25T08:43:00;94663.03;;;9.38;63.56
9774;BME280;4926;42.670;23.316;2022-11-25T08:45:28;94664.44;;;8.81;65.62
9774;BME280;4926;42.670;23.316;2022-11-25T08:47:58;94671.66;;;8.61;66.25
9774;BME280;4926;42.670;23.316;2022-11-25T08:50:24;94677.34;;;8.24;68.31
9774;BME280;4926;42.670;23.316;2022-11-25T08:52:51;94683.19;;;8.11;68.22
9774;BME280;4926;42.670;23.316;2022-11-25T08:55:19;94686.13;;;8.10;68.91
9774;BME280;4926;42.670;23.316;2022-11-25T08:57:46;94680.53;;;7.96;69.74
9774;BME280;4926;42.670;23.316;2022-11-25T09:00:14;94694.59;;;7.91;69.86
9774;BME280;4926;42.670;23.316;2022-11-25T09:02:41;94690.13;;;7.87;69.85
9774;BME280;4926;42.670;23.316;2022-11-25T09:05:10;94689.03;;;7.88;70.29
9774;BME280;4926;42.670;23.316;2022-11-25T09:07:37;94684.53;;;7.93;70.77
9774;BME280;4926;42.670;23.316;2022-11-25T09:10:14;94683.22;;;8.01;70.42
9774;BME280;4926;42.670;23.316;2022-11-25T09:12:42;94693.53;;;8.08;69.90
9774;BME280;4926;42.670;23.316;2022-11-25T09:15:14;94687.69;;;8.16;70.27
9774;BME280;4926;42.670;23.316;2022-11-25T09:17:41;94694.59;;;8.12;70.12
9774;BME280;4926;42.670;23.316;2022-11-25T09:20:08;94706.78;;;8.13;70.22
9774;BME280;4926;42.670;23.316;2022-11-25T09:22:36;94693.78;;;8.11;69.98
9774;BME280;4926;42.670;23.316;2022-11-25T09:25:03;94704.38;;;8.16;69.89
9774;BME280;4926;42.670;23.316;2022-11-25T09:27:30;94694.84;;;8.05;70.22
9774;BME280;4926;42.670;23.316;2022-11-25T09:29:58;94701.50;;;8.03;70.67
9774;BME280;4926;42.670;23.316;2022-11-25T09:32:25;94692.47;;;8.04;70.18
9774;BME280;4926;42.670;23.316;2022-11-25T09:34:53;94701.47;;;8.13;70.71
9774;BME280;4926;42.670;23.316;2022-11-25T09:37:20;94690.84;;;8.23;70.24
9774;BME280;4926;42.670;23.316;2022-11-25T09:39:47;94693.78;;;8.16;70.04
9774;BME280;4926;42.670;23.316;2022-11-25T09:42:26;94694.34;;;8.08;70.19
9774;BME280;4926;42.670;23.316;2022-11-25T09:45:16;94694.34;;;7.98;70.49
9774;BME280;4926;42.670;23.316;2022-11-25T09:51:08;94696.44;;;8.16;70.19
9774;BME280;4926;42.670;23.316;2022-11-25T09:53:42;94686.31;;;8.38;69.40
9774;BME280;4926;42.670;23.316;2022-11-25T09:56:18;94683.94;;;8.42;68.50
9774;BME280;4926;42.670;23.316;2022-11-25T09:58:51;94681.84;;;8.34;68.74
9774;BME280;4926;42.670;23.316;2022-11-25T10:01:25;94696.16;;;8.33;68.88
9774;BME280;4926;42.670;23.316;2022-11-25T10:03:59;94691.41;;;8.25;69.28
9774;BME280;4926;42.670;23.316;2022-11-25T10:06:44;94699.88;;;8.22;68.95
9774;BME280;4926;42.670;23.316;2022-11-25T10:09:16;94700.94;;;8.26;68.51
9774;BME280;4926;42.670;23.316;2022-11-25T10:11:51;94695.09;;;8.39;68.61
9774;BME280;4926;42.670;23.316;2022-11-25T10:14:27;94699.34;;;8.30;68.97
9774;BME280;4926;42.670;23.316;2022-11-25T10:17:02;94698.00;;;8.17;69.25
9774;BME280;4926;42.670;23.316;2022-11-25T10:19:42;94699.34;;;8.15;69.53
9774;BME280;4926;42.670;23.316;2022-11-25T10:22:19;94696.69;;;8.20;69.01
9774;BME280;4926;42.670;23.316;2022-11-25T10:24:47;94697.22;;;8.22;69.25
9774;BME280;4926;42.670;23.316;2022-11-25T10:27:18;94666.22;;;8.27;68.53
9774;BME280;4926;42.670;23.316;2022-11-25T10:29:55;94680.25;;;8.23;68.90
9774;BME280;4926;42.670;23.316;2022-11-25T10:32:31;94683.97;;;8.22;69.06
9774;BME280;4926;42.670;23.316;2022-11-25T10:35:05;94692.47;;;8.24;68.95
9774;BME280;4926;42.670;23.316;2022-11-25T10:37:36;94683.41;;;8.35;68.47
9774;BME280;4926;42.670;23.316;2022-11-25T10:40:08;94690.03;;;8.42;67.90
9774;BME280;4926;42.670;23.316;2022-11-25T10:42:39;94675.94;;;8.57;67.08
9774;BME280;4926;42.670;23.316;2022-11-25T10:45:09;94665.84;;;8.64;65.76
9774;BME280;4926;42.670;23.316;2022-11-25T10:47:54;94681.50;;;8.60;65.68
9774;BME280;4926;42.670;23.316;2022-11-25T10:50:31;94678.09;;;8.50;65.42
9774;BME280;4926;42.670;23.316;2022-11-25T10:53:08;94651.34;;;8.31;65.98
9774;BME280;4926;42.670;23.316;2022-11-25T10:55:36;94690.84;;;8.43;66.39
9774;BME280;4926;42.670;23.316;2022-11-25T10:58:20;94673.31;;;8.52;66.06
9774;BME280;4926;42.670;23.316;2022-11-25T11:01:01;94688.72;;;8.40;66.85
9774;BME280;4926;42.670;23.316;2022-11-25T11:03:30;94682.34;;;8.41;66.98
9774;BME280;4926;42.670;23.316;2022-11-25T11:05:57;94699.84;;;8.47;66.62
9774;BME280;4926;42.670;23.316;2022-11-25T11:08:27;94695.63;;;8.36;67.16
9774;BME280;4926;42.670;23.316;2022-11-25T11:11:20;94706.50;;;8.29;67.91
9774;BME280;4926;42.670;23.316;2022-11-25T11:13:49;94702.50;;;8.37;68.10
9774;BME280;4926;42.670;23.316;2022-11-25T11:16:24;94702.53;;;8.32;68.01
9774;BME280;4926;42.670;23.316;2022-11-25T11:18:53;94710.22;;;8.33;68.56
9774;BME280;4926;42.670;23.316;2022-11-25T11:21:22;94703.59;;;8.36;68.63
9774;BME280;4926;42.670;23.316;2022-11-25T11:23:51;94716.34;;;8.29;68.68
9774;BME280;4926;42.670;23.316;2022-11-25T11:26:23;94708.66;;;8.27;68.89
9774;BME280;4926;42.670;23.316;2022-11-25T11:29:00;94713.91;;;8.17;69.42
9774;BME280;4926;42.670;23.316;2022-11-25T11:31:32;94729.03;;;8.07;69.75
9774;BME280;4926;42.670;23.316;2022-11-25T11:34:40;94739.66;;;7.91;71.19
9774;BME280;4926;42.670;23.316;2022-11-25T11:37:21;94725.88;;;7.89;71.71
9774;BME280;4926;42.670;23.316;2022-11-25T11:40:04;94746.03;;;7.90;72.32
9774;BME280;4926;42.670;23.316;2022-11-25T11:42:46;94738.06;;;7.85;72.17
9774;BME280;4926;42.670;23.316;2022-11-25T11:45:30;94737.56;;;7.93;71.74
9774;BME280;4926;42.670;23.316;2022-11-25T11:48:10;94732.78;;;8.01;71.84
9774;BME280;4926;42.670;23.316;2022-11-25T11:50:44;94712.38;;;7.86;71.08
9774;BME280;4926;42.670;23.316;2022-11-25T11:53:20;94729.06;;;7.86;71.22
9774;BME280;4926;42.670;23.316;2022-11-25T11:55:58;94730.13;;;7.80;71.14
9774;BME280;4926;42.670;23.316;2022-11-25T11:58:48;94729.06;;;7.86;71.61
9774;BME280;4926;42.670;23.316;2022-11-25T12:01:28;94729.06;;;7.86;72.09
9774;BME280;4926;42.670;23.316;2022-11-25T12:04:00;94720.56;;;7.89;71.87
9774;BME280;4926;42.670;23.316;2022-11-25T12:06:35;94733.56;;;7.96;72.17
9774;BME280;4926;42.670;23.316;2022-11-25T12:09:08;94731.44;;;7.98;72.29
9774;BME280;4926;42.670;23.316;2022-11-25T12:11:41;94727.19;;;8.07;72.17
9774;BME280;4926;42.670;23.316;2022-11-25T12:14:18;94729.56;;;8.14;71.66
9774;BME280;4926;42.670;23.316;2022-11-25T12:16:56;94733.28;;;8.13;71.79
9774;BME280;4926;42.670;23.316;2022-11-25T12:19:30;94738.34;;;8.09;72.12
9774;BME280;4926;42.670;23.316;2022-11-25T12:22:07;94734.63;;;8.20;71.05
9774;BME280;4926;42.670;23.316;2022-11-25T12:24:43;94722.69;;;8.13;70.89
9774;BME280;4926;42.670;23.316;2022-11-25T12:27:21;94720.59;;;8.05;71.53
9774;BME280;4926;42.670;23.316;2022-11-25T12:29:49;94716.59;;;8.02;71.74
9774;BME280;4926;42.670;23.316;2022-11-25T12:32:36;94730.41;;;7.94;72.12
9774;BME280;4926;42.670;23.316;2022-11-25T12:35:15;94723.50;;;7.98;72.37
9774;BME280;4926;42.670;23.316;2022-11-25T12:37:53;94729.88;;;7.97;72.72
9774;BME280;4926;42.670;23.316;2022-11-25T12:40:29;94714.47;;;7.79;73.01
9774;BME280;4926;42.670;23.316;2022-11-25T12:43:09;94734.09;;;7.83;73.02
9774;BME280;4926;42.670;23.316;2022-11-25T12:45:41;94732.75;;;7.85;73.00
9774;BME280;4926;42.670;23.316;2022-11-25T12:48:10;94709.44;;;7.82;72.83
9774;BME280;4926;42.670;23.316;2022-11-25T12:50:50;94722.19;;;7.90;72.72
9774;BME280;4926;42.670;23.316;2022-11-25T12:53:28;94735.94;;;7.87;72.58
9774;BME280;4926;42.670;23.316;2022-11-25T12:55:58;94722.97;;;7.91;72.51
9774;BME280;4926;42.670;23.316;2022-11-25T12:58:53;94727.47;;;8.01;72.62
9774;BME280;4926;42.670;23.316;2022-11-25T13:01:55;94721.38;;;7.95;71.99
9774;BME280;4926;42.670;23.316;2022-11-25T13:04:32;94715.28;;;7.89;72.03
9774;BME280;4926;42.670;23.316;2022-11-25T13:07:25;94713.69;;;7.88;71.78
9774;BME280;4926;42.670;23.316;2022-11-25T13:13:08;94702.56;;;7.86;71.81
9774;BME280;4926;42.670;23.316;2022-11-25T13:15:40;94706.25;;;7.85;71.74
9774;BME280;4926;42.670;23.316;2022-11-25T13:18:11;94713.97;;;7.87;71.55
9774;BME280;4926;42.670;23.316;2022-11-25T13:20:46;94700.97;;;7.85;71.29
9774;BME280;4926;42.670;23.316;2022-11-25T13:23:24;94702.56;;;7.76;71.31
9774;BME280;4926;42.670;23.316;2022-11-25T13:29:05;94715.81;;;7.81;71.50
9774;BME280;4926;42.670;23.316;2022-11-25T13:31:33;94714.75;;;7.82;71.69
9774;BME280;4926;42.670;23.316;2022-11-25T13:34:21;94710.00;;;7.79;71.74
9774;BME280;4926;42.670;23.316;2022-11-25T13:36:56;94721.13;;;7.81;71.71
9774;BME280;4926;42.670;23.316;2022-11-25T13:39:31;94713.19;;;7.71;71.12
9774;BME280;4926;42.670;23.316;2022-11-25T13:42:01;94720.06;;;7.72;71.27
9774;BME280;4926;42.670;23.316;2022-11-25T13:44:30;94720.59;;;7.64;71.86
9774;BME280;4926;42.670;23.316;2022-11-25T13:47:23;94726.94;;;7.68;71.62
9774;BME280;4926;42.670;23.316;2022-11-25T13:49:55;94717.66;;;7.56;71.68
9774;BME280;4926;42.670;23.316;2022-11-25T13:52:34;94723.75;;;7.61;71.79